createdAt,value
2022-11-06T00:00:30.003Z,95.03
2022-11-06T00:06:10.122Z,93.51
2022-11-06T00:11:32.168Z,92.56
2022-11-06T00:16:53.845Z,91.95
2022-11-06T00:22:16.394Z,92.05
2022-11-06T00:27:40.185Z,92.16
2022-11-06T00:33:02.156Z,92.29
2022-11-06T00:38:23.890Z,92.44
2022-11-06T00:43:56.341Z,91.97
2022-11-06T00:49:18.122Z,92.32
2022-11-06T00:54:39.846Z,92.56
2022-11-06T01:00:01.690Z,92.84
2022-11-06T01:05:23.460Z,94.92
2022-11-06T01:10:45.138Z,93.59
2022-11-06T01:16:12.258Z,93.56
2022-11-06T01:21:36.530Z,92.96
2022-11-06T01:27:25.601Z,92.09
2022-11-06T01:32:40.077Z,92.20
2022-11-06T01:38:01.782Z,92.95
2022-11-06T01:43:47.303Z,94.40
2022-11-06T01:49:13.982Z,94.07
2022-11-06T01:54:39.803Z,93.93
2022-11-06T02:00:01.605Z,92.54
2022-11-06T02:05:23.286Z,92.27
2022-11-06T02:10:45.410Z,93.07
2022-11-06T02:16:28.648Z,92.91
2022-11-06T02:22:18.109Z,92.27
2022-11-06T02:27:44.500Z,93.37
2022-11-06T02:33:10.699Z,93.06
2022-11-06T02:38:39.941Z,92.50
2022-11-06T02:44:05.956Z,93.73
2022-11-06T02:49:51.883Z,94.94
2022-11-06T02:55:19.081Z,94.43
2022-11-06T03:00:44.790Z,95.02
2022-11-06T03:06:13.619Z,93.54
2022-11-06T03:11:38.890Z,93.45
2022-11-06T03:17:31.855Z,93.40
2022-11-06T03:23:15.494Z,93.88
2022-11-06T03:28:51.548Z,93.95
2022-11-06T03:34:23.005Z,94.29
2022-11-06T03:39:50.594Z,95.70
2022-11-06T03:45:19.022Z,94.64
2022-11-06T03:50:47.887Z,93.42
2022-11-06T03:56:16.412Z,91.38
2022-11-06T04:01:44.228Z,91.08
2022-11-06T04:07:10.713Z,90.41
2022-11-06T04:12:52.531Z,90.32
2022-11-06T04:18:17.950Z,90.19
2022-11-06T04:24:14.579Z,89.83
2022-11-06T04:30:07.463Z,90.57
2022-11-06T04:36:00.261Z,90.64
2022-11-06T04:41:34.671Z,90.03
2022-11-06T04:47:04.024Z,90.30
2022-11-06T04:52:28.010Z,90.69
2022-11-06T04:57:49.792Z,92.80
2022-11-06T05:03:11.856Z,92.34
2022-11-06T05:08:33.545Z,93.01
2022-11-06T05:13:55.389Z,93.84
2022-11-06T05:19:17.167Z,95.23
2022-11-06T05:24:38.831Z,94.85
2022-11-06T05:30:00.552Z,93.86
2022-11-06T05:35:22.395Z,91.47
2022-11-06T05:40:44.382Z,92.94
2022-11-06T05:46:11.582Z,91.08
2022-11-06T05:51:46.732Z,90.63
2022-11-06T05:57:08.525Z,90.05
2022-11-06T06:02:30.386Z,90.01
2022-11-06T06:07:52.140Z,91.93
2022-11-06T06:13:14.633Z,91.78
2022-11-06T06:18:36.304Z,91.67
2022-11-06T06:23:58.017Z,91.71
2022-11-06T06:29:19.738Z,92.20
2022-11-06T06:34:41.412Z,91.23
2022-11-06T06:40:04.108Z,91.01
2022-11-06T06:45:26.665Z,91.13
2022-11-06T06:50:48.332Z,90.85
2022-11-06T06:56:11.089Z,90.41
2022-11-06T07:01:33.167Z,90.87
2022-11-06T07:06:55.204Z,89.56
2022-11-06T07:12:16.929Z,89.35
2022-11-06T07:17:38.651Z,89.16
2022-11-06T07:23:05.464Z,89.86
2022-11-06T07:28:27.201Z,90.34
2022-11-06T07:33:48.911Z,91.78
2022-11-06T07:39:10.631Z,93.36
2022-11-06T07:44:32.363Z,92.71
2022-11-06T07:49:54.101Z,92.01
2022-11-06T07:55:15.795Z,91.78
2022-11-06T08:00:37.560Z,90.54
2022-11-06T08:05:59.651Z,89.16
2022-11-06T08:11:21.349Z,89.30
2022-11-06T08:16:43.034Z,88.01
2022-11-06T08:22:04.742Z,90.40
2022-11-06T08:27:28.194Z,91.23
2022-11-06T08:32:50.372Z,93.55
2022-11-06T08:38:12.792Z,91.86
2022-11-06T08:43:35.964Z,92.94
2022-11-06T08:48:57.708Z,93.54
2022-11-06T08:54:19.410Z,93.59
2022-11-06T08:59:41.127Z,93.06
2022-11-06T09:05:03.004Z,92.96
2022-11-06T09:10:25.967Z,92.61
2022-11-06T09:15:47.694Z,92.12
2022-11-06T09:21:09.435Z,93.18
2022-11-06T09:26:31.146Z,91.82
2022-11-06T09:31:54.390Z,90.68
2022-11-06T09:37:16.215Z,88.71
2022-11-06T09:43:06.069Z,86.95
2022-11-06T09:48:41.891Z,86.06
2022-11-06T09:54:13.153Z,86.97
2022-11-06T09:59:37.043Z,86.09
2022-11-06T10:05:07.913Z,84.74
2022-11-06T10:10:54.315Z,84.56
2022-11-06T10:16:46.020Z,84.23
2022-11-06T10:22:07.646Z,84.23
2022-11-06T10:28:02.931Z,84.15
2022-11-06T10:33:47.680Z,84.50
2022-11-06T10:39:19.265Z,84.82
2022-11-06T10:44:57.246Z,84.80
2022-11-06T10:50:19.084Z,85.74
2022-11-06T10:56:24.013Z,84.40
2022-11-06T11:01:45.900Z,83.11
2022-11-06T11:07:20.456Z,84.50
2022-11-06T11:12:45.666Z,84.84
2022-11-06T11:18:13.957Z,85.76
2022-11-06T11:23:35.974Z,84.74
2022-11-06T11:29:22.591Z,84.92
2022-11-06T11:34:52.626Z,85.30
2022-11-06T11:40:37.664Z,83.27
2022-11-06T11:46:17.096Z,80.07
2022-11-06T11:51:44.761Z,80.45
2022-11-06T11:57:17.147Z,81.57
2022-11-06T12:02:50.817Z,80.66
2022-11-06T12:08:21.869Z,81.69
2022-11-06T12:13:43.613Z,79.03
2022-11-06T12:19:07.725Z,79.78
2022-11-06T12:24:52.889Z,78.44
2022-11-06T12:30:18.181Z,79.43
2022-11-06T12:35:45.431Z,78.95
2022-11-06T12:41:15.031Z,78.55
2022-11-06T12:46:52.180Z,78.93
2022-11-06T12:52:36.227Z,76.97
2022-11-06T12:58:17.772Z,79.10
2022-11-06T13:04:03.517Z,78.53
2022-11-06T13:09:42.050Z,79.48
2022-11-06T13:15:32.563Z,79.36
2022-11-06T13:21:18.027Z,76.46
2022-11-06T13:26:47.517Z,79.02
2022-11-06T13:32:15.895Z,79.00
2022-11-06T13:37:43.801Z,80.57
2022-11-06T13:43:12.034Z,80.21
2022-11-06T13:48:48.374Z,80.17
2022-11-06T13:54:23.983Z,79.76
2022-11-06T14:00:14.425Z,81.66
2022-11-06T14:05:45.203Z,81.25
2022-11-06T14:11:13.340Z,81.08
2022-11-06T14:16:38.112Z,81.64
2022-11-06T14:22:08.677Z,83.83
2022-11-06T14:27:30.371Z,83.70
2022-11-06T14:32:56.046Z,82.93
2022-11-06T14:38:29.693Z,83.46
2022-11-06T14:43:54.309Z,82.31
2022-11-06T14:49:33.498Z,83.36
2022-11-06T14:55:05.707Z,83.98
2022-11-06T15:00:43.560Z,84.57
2022-11-06T15:06:19.962Z,81.13
2022-11-06T15:11:47.999Z,80.10
2022-11-06T15:17:15.577Z,78.00
2022-11-06T15:22:42.227Z,78.89
2022-11-06T15:28:19.662Z,80.07
2022-11-06T15:33:57.149Z,80.44
2022-11-06T15:39:42.293Z,81.34
2022-11-06T15:45:15.991Z,81.88
2022-11-06T15:50:42.650Z,82.50
2022-11-06T15:56:09.015Z,81.85
2022-11-06T16:01:34.635Z,82.04
2022-11-06T16:06:58.489Z,83.77
2022-11-06T16:12:20.446Z,83.55
2022-11-06T16:17:46.146Z,83.38
2022-11-06T16:23:14.109Z,83.82
2022-11-06T16:28:37.111Z,83.48
2022-11-06T16:34:00.129Z,84.12
2022-11-06T16:39:35.430Z,83.42
2022-11-06T16:45:17.696Z,82.87
2022-11-06T16:50:53.018Z,81.34
2022-11-06T16:56:15.178Z,81.99
2022-11-06T17:01:43.142Z,81.76
2022-11-06T17:07:04.995Z,83.00
2022-11-06T17:12:26.690Z,80.93
2022-11-06T17:17:49.784Z,80.85
2022-11-06T17:23:15.963Z,81.29
2022-11-06T17:28:38.560Z,79.08
2022-11-06T17:34:00.334Z,79.75
2022-11-06T17:39:22.525Z,79.61
2022-11-06T17:44:44.515Z,80.03
2022-11-06T17:50:06.856Z,78.90
2022-11-06T17:55:28.503Z,80.75
2022-11-06T18:00:50.209Z,80.70
2022-11-06T18:06:15.805Z,79.90
2022-11-06T18:11:37.498Z,80.17
2022-11-06T18:16:59.223Z,81.10
2022-11-06T18:22:21.306Z,82.11
2022-11-06T18:27:43.167Z,81.92
2022-11-06T18:33:04.937Z,81.15
2022-11-06T18:38:26.824Z,80.13
2022-11-06T18:43:49.040Z,80.52
2022-11-06T18:49:11.855Z,79.44
2022-11-06T18:54:33.684Z,79.12
2022-11-06T18:59:55.469Z,79.68
2022-11-06T19:05:17.291Z,80.80
2022-11-06T19:10:38.996Z,79.25
2022-11-06T19:16:00.731Z,78.61
2022-11-06T19:21:22.462Z,79.11
2022-11-06T19:26:44.198Z,78.75
2022-11-06T19:32:05.913Z,74.50
2022-11-06T19:37:29.056Z,74.21
2022-11-06T19:42:50.762Z,75.21
2022-11-06T19:48:12.439Z,76.15
2022-11-06T19:53:34.201Z,75.02
2022-11-06T19:58:56.082Z,72.94
2022-11-06T20:04:17.934Z,73.70
2022-11-06T20:09:39.680Z,72.06
2022-11-06T20:15:01.384Z,72.35
2022-11-06T20:20:23.421Z,71.40
2022-11-06T20:25:45.188Z,73.11
2022-11-06T20:31:08.351Z,73.20
2022-11-06T20:36:31.380Z,73.62
2022-11-06T20:41:53.210Z,73.80
2022-11-06T20:47:15.122Z,74.05
2022-11-06T20:52:36.828Z,73.89
2022-11-06T20:57:58.537Z,72.27
2022-11-06T21:03:20.499Z,71.97
2022-11-06T21:08:43.077Z,71.53
2022-11-06T21:14:05.049Z,72.54
2022-11-06T21:19:26.874Z,71.87
2022-11-06T21:24:48.987Z,70.91
2022-11-06T21:30:11.481Z,69.84
2022-11-06T21:35:33.215Z,69.97
2022-11-06T21:40:55.055Z,69.42
2022-11-06T21:46:17.927Z,69.25
2022-11-06T21:51:39.637Z,71.41
2022-11-06T21:57:02.716Z,72.50
2022-11-06T22:02:24.565Z,71.16
2022-11-06T22:07:46.558Z,72.11
2022-11-06T22:13:08.391Z,72.15
2022-11-06T22:18:30.081Z,70.90
2022-11-06T22:23:51.882Z,70.48
2022-11-06T22:29:14.442Z,69.49
2022-11-06T22:34:36.163Z,69.16
2022-11-06T22:39:57.988Z,69.97
2022-11-06T22:45:19.744Z,69.83
2022-11-06T22:50:41.956Z,70.32
2022-11-06T22:56:04.525Z,70.35
2022-11-06T23:01:27.914Z,72.18
2022-11-06T23:06:49.656Z,77.68
2022-11-06T23:12:11.346Z,79.07
2022-11-06T23:17:35.750Z,78.81
2022-11-06T23:22:58.267Z,79.50
2022-11-06T23:28:19.970Z,80.99
2022-11-06T23:33:42.945Z,80.51
2022-11-06T23:39:05.311Z,81.51
2022-11-06T23:44:45.727Z,81.58
2022-11-06T23:50:08.185Z,82.33
2022-11-06T23:55:29.878Z,83.50
